sensor_id;sensor_type;location;lat;lon;timestamp;pressure;altitude;pressure_sealevel;temperature;humidity
58662;BME280;44432;49.786;22.760;2023-05-03T00:01:14;99860.85;;;10.94;75.43
58662;BME280;44432;49.786;22.760;2023-05-03T00:03:43;99863.13;;;10.96;75.34
58662;BME280;44432;49.786;22.760;2023-05-03T00:06:13;99866.83;;;10.96;75.46
58662;BME280;44432;49.786;22.760;2023-05-03T00:08:43;99872.14;;;10.95;75.60
58662;BME280;44432;49.786;22.760;2023-05-03T00:11:12;99875.77;;;10.96;75.52
58662;BME280;44432;49.786;22.760;2023-05-03T00:13:41;99874.91;;;10.97;75.74
58662;BME280;44432;49.786;22.760;2023-05-03T00:16:10;99868.17;;;10.99;75.69
58662;BME280;44432;49.786;22.760;2023-05-03T00:18:39;99871.55;;;11.00;75.69
58662;BME280;44432;49.786;22.760;2023-05-03T00:21:08;99875.25;;;11.01;75.64
58662;BME280;44432;49.786;22.760;2023-05-03T00:23:37;99880.25;;;11.02;75.67
58662;BME280;44432;49.786;22.760;2023-05-03T00:26:06;99881.39;;;11.01;75.74
58662;BME280;44432;49.786;22.760;2023-05-03T00:28:35;99878.49;;;11.01;75.90
58662;BME280;44432;49.786;22.760;2023-05-03T00:31:07;99879.52;;;11.01;75.98
58662;BME280;44432;49.786;22.760;2023-05-03T00:33:37;99878.02;;;11.03;76.09
58662;BME280;44432;49.786;22.760;2023-05-03T00:36:09;99879.08;;;11.04;76.17
58662;BME280;44432;49.786;22.760;2023-05-03T00:38:39;99879.52;;;11.09;76.50
58662;BME280;44432;49.786;22.760;2023-05-03T00:41:09;99876.73;;;11.16;76.83
58662;BME280;44432;49.786;22.760;2023-05-03T00:43:39;99874.14;;;11.23;76.88
58662;BME280;44432;49.786;22.760;2023-05-03T00:46:09;99869.88;;;11.31;77.01
58662;BME280;44432;49.786;22.760;2023-05-03T00:48:38;99865.98;;;11.39;76.89
58662;BME280;44432;49.786;22.760;2023-05-03T00:51:07;99863.76;;;11.46;76.92
58662;BME280;44432;49.786;22.760;2023-05-03T00:53:36;99859.20;;;11.53;76.96
58662;BME280;44432;49.786;22.760;2023-05-03T00:56:06;99859.19;;;11.60;76.81
58662;BME280;44432;49.786;22.760;2023-05-03T00:58:35;99857.68;;;11.64;77.23
58662;BME280;44432;49.786;22.760;2023-05-03T01:01:06;99853.57;;;11.69;76.75
58662;BME280;44432;49.786;22.760;2023-05-03T01:03:36;99850.04;;;11.68;76.90
58662;BME280;44432;49.786;22.760;2023-05-03T01:06:09;99845.44;;;11.69;77.06
58662;BME280;44432;49.786;22.760;2023-05-03T01:08:42;99842.66;;;11.68;76.92
58662;BME280;44432;49.786;22.760;2023-05-03T01:11:13;99839.33;;;11.69;77.03
58662;BME280;44432;49.786;22.760;2023-05-03T01:13:47;99831.92;;;11.71;77.14
58662;BME280;44432;49.786;22.760;2023-05-03T01:16:23;99817.91;;;11.73;77.36
58662;BME280;44432;49.786;22.760;2023-05-03T01:18:54;99801.84;;;11.74;77.53
58662;BME280;44432;49.786;22.760;2023-05-03T01:21:28;99797.29;;;11.75;77.37
58662;BME280;44432;49.786;22.760;2023-05-03T01:24:02;99795.41;;;11.75;77.59
58662;BME280;44432;49.786;22.760;2023-05-03T01:26:32;99796.63;;;11.75;77.59
58662;BME280;44432;49.786;22.760;2023-05-03T01:29:01;99796.55;;;11.74;77.74
58662;BME280;44432;49.786;22.760;2023-05-03T01:31:32;99798.39;;;11.74;77.50
58662;BME280;44432;49.786;22.760;2023-05-03T01:34:09;99795.70;;;11.70;77.73
58662;BME280;44432;49.786;22.760;2023-05-03T01:36:41;99799.74;;;11.65;77.62
58662;BME280;44432;49.786;22.760;2023-05-03T01:39:11;99801.39;;;11.58;77.58
58662;BME280;44432;49.786;22.760;2023-05-03T01:41:43;99804.56;;;11.52;77.92
58662;BME280;44432;49.786;22.760;2023-05-03T01:44:13;99805.55;;;11.45;77.96
58662;BME280;44432;49.786;22.760;2023-05-03T01:46:43;99809.52;;;11.38;77.94
58662;BME280;44432;49.786;22.760;2023-05-03T01:49:13;99816.20;;;11.31;78.06
58662;BME280;44432;49.786;22.760;2023-05-03T01:51:42;99818.88;;;11.25;78.20
58662;BME280;44432;49.786;22.760;2023-05-03T01:54:11;99820.80;;;11.20;78.61
58662;BME280;44432;49.786;22.760;2023-05-03T01:56:40;99825.52;;;11.15;78.74
58662;BME280;44432;49.786;22.760;2023-05-03T01:59:09;99824.28;;;11.10;78.88
58662;BME280;44432;49.786;22.760;2023-05-03T02:01:38;99825.02;;;11.05;78.98
58662;BME280;44432;49.786;22.760;2023-05-03T02:04:07;99829.11;;;11.02;79.27
58662;BME280;44432;49.786;22.760;2023-05-03T02:06:36;99830.16;;;11.00;79.34
58662;BME280;44432;49.786;22.760;2023-05-03T02:09:05;99836.91;;;10.98;79.69
58662;BME280;44432;49.786;22.760;2023-05-03T02:11:35;99836.34;;;10.97;79.92
58662;BME280;44432;49.786;22.760;2023-05-03T02:14:04;99840.12;;;10.96;80.07
58662;BME280;44432;49.786;22.760;2023-05-03T02:16:33;99844.91;;;10.96;80.06
58662;BME280;44432;49.786;22.760;2023-05-03T02:19:02;99848.66;;;10.96;80.24
58662;BME280;44432;49.786;22.760;2023-05-03T02:21:33;99847.15;;;10.94;80.25
58662;BME280;44432;49.786;22.760;2023-05-03T02:24:02;99844.91;;;10.92;80.15
58662;BME280;44432;49.786;22.760;2023-05-03T02:26:32;99846.41;;;10.90;80.44
58662;BME280;44432;49.786;22.760;2023-05-03T02:29:01;99845.91;;;10.89;80.54
58662;BME280;44432;49.786;22.760;2023-05-03T02:31:30;99845.63;;;10.87;80.42
58662;BME280;44432;49.786;22.760;2023-05-03T02:33:59;99846.11;;;10.86;80.74
58662;BME280;44432;49.786;22.760;2023-05-03T02:36:28;99846.29;;;10.85;80.60
58662;BME280;44432;49.786;22.760;2023-05-03T02:38:57;99848.84;;;10.84;80.81
58662;BME280;44432;49.786;22.760;2023-05-03T02:41:26;99847.37;;;10.82;80.63
58662;BME280;44432;49.786;22.760;2023-05-03T02:43:55;99845.25;;;10.79;80.80
58662;BME280;44432;49.786;22.760;2023-05-03T02:46:24;99847.93;;;10.77;80.96
58662;BME280;44432;49.786;22.760;2023-05-03T02:48:53;99855.68;;;10.76;81.02
58662;BME280;44432;49.786;22.760;2023-05-03T02:51:22;99859.45;;;10.74;80.90
58662;BME280;44432;49.786;22.760;2023-05-03T02:53:51;99859.29;;;10.71;81.11
58662;BME280;44432;49.786;22.760;2023-05-03T02:56:21;99858.48;;;10.69;81.29
58662;BME280;44432;49.786;22.760;2023-05-03T02:58:52;99858.95;;;10.68;81.43
58662;BME280;44432;49.786;22.760;2023-05-03T03:01:21;99862.70;;;10.69;81.64
58662;BME280;44432;49.786;22.760;2023-05-03T03:03:51;99869.89;;;10.71;81.62
58662;BME280;44432;49.786;22.760;2023-05-03T03:06:20;99876.48;;;10.73;81.69
58662;BME280;44432;49.786;22.760;2023-05-03T03:08:49;99878.10;;;10.75;81.79
58662;BME280;44432;49.786;22.760;2023-05-03T03:11:18;99880.92;;;10.78;81.86
58662;BME280;44432;49.786;22.760;2023-05-03T03:13:47;99878.53;;;10.82;82.12
58662;BME280;44432;49.786;22.760;2023-05-03T03:16:16;99881.72;;;10.86;82.13
58662;BME280;44432;49.786;22.760;2023-05-03T03:18:45;99884.29;;;10.90;82.05
58662;BME280;44432;49.786;22.760;2023-05-03T03:21:14;99889.46;;;10.95;82.20
58662;BME280;44432;49.786;22.760;2023-05-03T03:23:43;99889.14;;;10.99;82.13
58662;BME280;44432;49.786;22.760;2023-05-03T03:26:12;99893.02;;;11.03;82.10
58662;BME280;44432;49.786;22.760;2023-05-03T03:28:41;99890.05;;;11.06;82.08
58662;BME280;44432;49.786;22.760;2023-05-03T03:31:10;99890.67;;;11.10;82.02
58662;BME280;44432;49.786;22.760;2023-05-03T03:33:39;99888.16;;;11.13;82.17
58662;BME280;44432;49.786;22.760;2023-05-03T03:36:09;99889.18;;;11.16;82.14
58662;BME280;44432;49.786;22.760;2023-05-03T03:38:38;99894.43;;;11.20;82.14
58662;BME280;44432;49.786;22.760;2023-05-03T03:41:07;99897.61;;;11.24;82.20
58662;BME280;44432;49.786;22.760;2023-05-03T03:43:36;99898.35;;;11.28;82.18
58662;BME280;44432;49.786;22.760;2023-05-03T03:46:06;99904.09;;;11.32;82.17
58662;BME280;44432;49.786;22.760;2023-05-03T03:48:35;99903.72;;;11.36;81.94
58662;BME280;44432;49.786;22.760;2023-05-03T03:51:04;99908.69;;;11.40;82.02
58662;BME280;44432;49.786;22.760;2023-05-03T03:53:33;99908.39;;;11.44;81.92
58662;BME280;44432;49.786;22.760;2023-05-03T03:56:02;99909.35;;;11.47;81.90
58662;BME280;44432;49.786;22.760;2023-05-03T03:58:31;99911.88;;;11.51;82.01
58662;BME280;44432;49.786;22.760;2023-05-03T04:01:00;99920.74;;;11.56;82.00
58662;BME280;44432;49.786;22.760;2023-05-03T04:03:30;99922.17;;;11.59;81.84
58662;BME280;44432;49.786;22.760;2023-05-03T04:06:00;99929.09;;;11.63;81.72
58662;BME280;44432;49.786;22.760;2023-05-03T04:08:29;99930.44;;;11.66;81.70
58662;BME280;44432;49.786;22.760;2023-05-03T04:10:58;99929.79;;;11.70;81.76
58662;BME280;44432;49.786;22.760;2023-05-03T04:13:27;99930.07;;;11.74;81.82
58662;BME280;44432;49.786;22.760;2023-05-03T04:15:56;99933.84;;;11.78;81.79
58662;BME280;44432;49.786;22.760;2023-05-03T04:18:25;99937.80;;;11.81;81.69
58662;BME280;44432;49.786;22.760;2023-05-03T04:20:54;99941.29;;;11.86;81.75
58662;BME280;44432;49.786;22.760;2023-05-03T04:23:23;99945.00;;;11.89;81.76
58662;BME280;44432;49.786;22.760;2023-05-03T04:25:52;99945.11;;;11.94;81.50
58662;BME280;44432;49.786;22.760;2023-05-03T04:28:21;99942.35;;;11.97;81.53
58662;BME280;44432;49.786;22.760;2023-05-03T04:30:51;99945.48;;;12.00;81.22
58662;BME280;44432;49.786;22.760;2023-05-03T04:33:20;99945.92;;;12.03;81.13
58662;BME280;44432;49.786;22.760;2023-05-03T04:35:50;99945.92;;;12.07;81.53
58662;BME280;44432;49.786;22.760;2023-05-03T04:38:19;99944.20;;;12.11;81.32
58662;BME280;44432;49.786;22.760;2023-05-03T04:40:48;99944.45;;;12.16;80.98
58662;BME280;44432;49.786;22.760;2023-05-03T04:43:18;99947.41;;;12.21;81.03
58662;BME280;44432;49.786;22.760;2023-05-03T04:45:47;99954.08;;;12.27;81.00
58662;BME280;44432;49.786;22.760;2023-05-03T04:48:16;99958.27;;;12.32;80.78
58662;BME280;44432;49.786;22.760;2023-05-03T04:50:45;99958.94;;;12.38;80.70
58662;BME280;44432;49.786;22.760;2023-05-03T04:53:14;99963.41;;;12.42;80.44
58662;BME280;44432;49.786;22.760;2023-05-03T04:55:43;99967.79;;;12.48;80.30
58662;BME280;44432;49.786;22.760;2023-05-03T04:58:12;99969.80;;;12.51;79.94
58662;BME280;44432;49.786;22.760;2023-05-03T05:00:42;99967.52;;;12.54;79.88
58662;BME280;44432;49.786;22.760;2023-05-03T05:03:11;99974.46;;;12.58;79.79
58662;BME280;44432;49.786;22.760;2023-05-03T05:05:40;99978.16;;;12.61;79.71
58662;BME280;44432;49.786;22.760;2023-05-03T05:08:09;99976.68;;;12.64;79.12
58662;BME280;44432;49.786;22.760;2023-05-03T05:10:39;99990.41;;;12.67;79.27
58662;BME280;44432;49.786;22.760;2023-05-03T05:13:09;99984.77;;;12.71;79.31
58662;BME280;44432;49.786;22.760;2023-05-03T05:15:38;99981.48;;;12.78;79.13
58662;BME280;44432;49.786;22.760;2023-05-03T05:18:07;99982.68;;;12.88;79.02
58662;BME280;44432;49.786;22.760;2023-05-03T05:20:37;99981.51;;;12.96;78.86
58662;BME280;44432;49.786;22.760;2023-05-03T05:23:06;99981.55;;;13.04;78.61
58662;BME280;44432;49.786;22.760;2023-05-03T05:25:35;99983.06;;;13.12;78.14
58662;BME280;44432;49.786;22.760;2023-05-03T05:28:04;99983.34;;;13.17;77.80
58662;BME280;44432;49.786;22.760;2023-05-03T05:30:33;99983.58;;;13.22;77.68
58662;BME280;44432;49.786;22.760;2023-05-03T05:33:02;99985.72;;;13.26;76.98
58662;BME280;44432;49.786;22.760;2023-05-03T05:35:32;99985.24;;;13.21;76.93
58662;BME280;44432;49.786;22.760;2023-05-03T05:38:02;99985.95;;;13.26;76.96
58662;BME280;44432;49.786;22.760;2023-05-03T05:40:31;99986.96;;;13.28;76.55
58662;BME280;44432;49.786;22.760;2023-05-03T05:43:00;99987.40;;;13.31;76.47
58662;BME280;44432;49.786;22.760;2023-05-03T05:45:29;99992.19;;;13.35;76.38
58662;BME280;44432;49.786;22.760;2023-05-03T05:47:58;99995.13;;;13.35;75.94
58662;BME280;44432;49.786;22.760;2023-05-03T05:50:27;99998.85;;;13.34;76.00
58662;BME280;44432;49.786;22.760;2023-05-03T05:52:58;100002.34;;;13.37;76.22
58662;BME280;44432;49.786;22.760;2023-05-03T05:55:27;100006.15;;;13.43;76.20
58662;BME280;44432;49.786;22.760;2023-05-03T05:57:56;100013.89;;;13.44;75.81
58662;BME280;44432;49.786;22.760;2023-05-03T06:00:25;100017.73;;;13.42;75.50
58662;BME280;44432;49.786;22.760;2023-05-03T06:02:54;100020.77;;;13.42;75.53
58662;BME280;44432;49.786;22.760;2023-05-03T06:05:23;100017.39;;;13.45;75.75
58662;BME280;44432;49.786;22.760;2023-05-03T06:07:52;100015.96;;;13.51;75.77
58662;BME280;44432;49.786;22.760;2023-05-03T06:10:21;100021.27;;;13.54;75.23
58662;BME280;44432;49.786;22.760;2023-05-03T06:12:50;100019.68;;;13.53;75.03
58662;BME280;44432;49.786;22.760;2023-05-03T06:15:19;100020.23;;;13.53;74.82
58662;BME280;44432;49.786;22.760;2023-05-03T06:17:49;100022.05;;;13.49;74.63
58662;BME280;44432;49.786;22.760;2023-05-03T06:20:18;100024.42;;;13.45;74.60
58662;BME280;44432;49.786;22.760;2023-05-03T06:22:47;100025.66;;;13.41;74.64
58662;BME280;44432;49.786;22.760;2023-05-03T06:25:16;100030.25;;;13.45;74.91
58662;BME280;44432;49.786;22.760;2023-05-03T06:27:45;100031.33;;;13.54;74.88
58662;BME280;44432;49.786;22.760;2023-05-03T06:30:14;100033.44;;;13.61;74.81
58662;BME280;44432;49.786;22.760;2023-05-03T06:32:45;100035.75;;;13.68;74.62
58662;BME280;44432;49.786;22.760;2023-05-03T06:35:15;100036.34;;;13.73;74.13
58662;BME280;44432;49.786;22.760;2023-05-03T06:37:46;100037.77;;;13.73;73.79
58662;BME280;44432;49.786;22.760;2023-05-03T06:40:15;100035.85;;;13.72;73.75
58662;BME280;44432;49.786;22.760;2023-05-03T06:42:44;100037.14;;;13.81;73.99
58662;BME280;44432;49.786;22.760;2023-05-03T06:45:13;100036.93;;;13.93;73.80
58662;BME280;44432;49.786;22.760;2023-05-03T06:47:43;100037.08;;;13.95;73.17
58662;BME280;44432;49.786;22.760;2023-05-03T06:50:12;100038.59;;;13.96;73.15
58662;BME280;44432;49.786;22.760;2023-05-03T06:52:41;100038.08;;;14.03;73.26
58662;BME280;44432;49.786;22.760;2023-05-03T06:55:10;100044.69;;;14.14;73.06
58662;BME280;44432;49.786;22.760;2023-05-03T06:57:39;100045.33;;;14.19;72.72
58662;BME280;44432;49.786;22.760;2023-05-03T07:00:10;100042.30;;;14.22;72.22
58662;BME280;44432;49.786;22.760;2023-05-03T07:02:39;100041.34;;;14.19;71.97
58662;BME280;44432;49.786;22.760;2023-05-03T07:05:08;100041.39;;;14.24;72.13
58662;BME280;44432;49.786;22.760;2023-05-03T07:07:38;100041.83;;;14.34;72.28
58662;BME280;44432;49.786;22.760;2023-05-03T07:10:07;100048.33;;;14.46;72.11
58662;BME280;44432;49.786;22.760;2023-05-03T07:12:36;100051.52;;;14.55;71.68
58662;BME280;44432;49.786;22.760;2023-05-03T07:15:06;100056.95;;;14.57;71.45
58662;BME280;44432;49.786;22.760;2023-05-03T07:17:36;100051.29;;;14.67;71.49
58662;BME280;44432;49.786;22.760;2023-05-03T07:20:06;100057.10;;;14.75;70.91
58662;BME280;44432;49.786;22.760;2023-05-03T07:22:35;100058.30;;;14.73;70.48
58662;BME280;44432;49.786;22.760;2023-05-03T07:25:05;100060.18;;;14.73;70.41
58662;BME280;44432;49.786;22.760;2023-05-03T07:27:35;100059.49;;;14.77;70.43
58662;BME280;44432;49.786;22.760;2023-05-03T07:30:04;100060.86;;;14.80;70.24
58662;BME280;44432;49.786;22.760;2023-05-03T07:32:34;100060.60;;;14.84;70.07
58662;BME280;44432;49.786;22.760;2023-05-03T07:35:04;100063.17;;;14.91;70.02
58662;BME280;44432;49.786;22.760;2023-05-03T07:37:33;100063.95;;;14.98;69.71
58662;BME280;44432;49.786;22.760;2023-05-03T07:40:06;100059.63;;;14.97;69.21
58662;BME280;44432;49.786;22.760;2023-05-03T07:42:36;100063.67;;;14.99;69.07
58662;BME280;44432;49.786;22.760;2023-05-03T07:45:06;100066.90;;;14.98;68.92
58662;BME280;44432;49.786;22.760;2023-05-03T07:47:35;100070.61;;;15.04;68.91
58662;BME280;44432;49.786;22.760;2023-05-03T07:50:06;100064.61;;;15.02;68.69
58662;BME280;44432;49.786;22.760;2023-05-03T07:52:36;100069.28;;;15.02;68.44
58662;BME280;44432;49.786;22.760;2023-05-03T07:55:06;100065.75;;;14.99;68.52
58662;BME280;44432;49.786;22.760;2023-05-03T07:57:35;100066.09;;;15.05;68.52
58662;BME280;44432;49.786;22.760;2023-05-03T08:00:05;100069.65;;;15.13;68.20
58662;BME280;44432;49.786;22.760;2023-05-03T08:02:37;100070.23;;;15.15;68.09
58662;BME280;44432;49.786;22.760;2023-05-03T08:05:07;100074.07;;;15.13;67.52
58662;BME280;44432;49.786;22.760;2023-05-03T08:10:58;100074.06;;;14.98;67.45
58662;BME280;44432;49.786;22.760;2023-05-03T08:13:27;100071.20;;;14.95;67.54
58662;BME280;44432;49.786;22.760;2023-05-03T08:15:56;100074.16;;;14.94;67.23
58662;BME280;44432;49.786;22.760;2023-05-03T08:18:25;100075.77;;;14.89;67.08
58662;BME280;44432;49.786;22.760;2023-05-03T08:20:54;100076.14;;;14.80;67.17
58662;BME280;44432;49.786;22.760;2023-05-03T08:23:24;100076.52;;;14.74;67.45
58662;BME280;44432;49.786;22.760;2023-05-03T08:25:53;100068.95;;;14.76;67.71
58662;BME280;44432;49.786;22.760;2023-05-03T08:28:23;100070.15;;;14.74;67.28
58662;BME280;44432;49.786;22.760;2023-05-03T08:30:53;100070.79;;;14.79;67.59
58662;BME280;44432;49.786;22.760;2023-05-03T08:33:23;100067.30;;;14.89;67.48
58662;BME280;44432;49.786;22.760;2023-05-03T08:35:52;100064.74;;;14.98;67.16
58662;BME280;44432;49.786;22.760;2023-05-03T08:38:21;100067.59;;;15.07;67.12
58662;BME280;44432;49.786;22.760;2023-05-03T08:40:51;100072.92;;;15.12;66.91
58662;BME280;44432;49.786;22.760;2023-05-03T08:43:22;100078.17;;;15.00;66.01
58662;BME280;44432;49.786;22.760;2023-05-03T08:45:52;100077.75;;;14.83;66.47
58662;BME280;44432;49.786;22.760;2023-05-03T08:48:21;100083.70;;;14.72;66.60
58662;BME280;44432;49.786;22.760;2023-05-03T08:50:51;100080.88;;;14.57;66.79
58662;BME280;44432;49.786;22.760;2023-05-03T08:53:22;100084.20;;;14.49;67.42
58662;BME280;44432;49.786;22.760;2023-05-03T08:55:52;100084.61;;;14.49;67.51
58662;BME280;44432;49.786;22.760;2023-05-03T08:58:21;100080.79;;;14.54;67.89
58662;BME280;44432;49.786;22.760;2023-05-03T09:00:50;100077.69;;;14.68;68.18
58662;BME280;44432;49.786;22.760;2023-05-03T09:03:19;100074.00;;;14.82;67.80
58662;BME280;44432;49.786;22.760;2023-05-03T09:05:48;100074.49;;;14.89;67.74
58662;BME280;44432;49.786;22.760;2023-05-03T09:08:19;100078.60;;;14.98;67.46
58662;BME280;44432;49.786;22.760;2023-05-03T09:10:49;100085.13;;;14.96;67.02
58662;BME280;44432;49.786;22.760;2023-05-03T09:13:18;100089.56;;;14.83;66.72
58662;BME280;44432;49.786;22.760;2023-05-03T09:15:53;100090.60;;;14.77;67.00
58662;BME280;44432;49.786;22.760;2023-05-03T09:18:22;100087.69;;;14.74;67.16
58662;BME280;44432;49.786;22.760;2023-05-03T09:20:51;100087.71;;;14.76;67.50
58662;BME280;44432;49.786;22.760;2023-05-03T09:23:28;100082.73;;;14.84;67.41
58662;BME280;44432;49.786;22.760;2023-05-03T09:25:58;100085.85;;;14.97;67.61
58662;BME280;44432;49.786;22.760;2023-05-03T09:28:27;100085.70;;;15.11;67.35
58662;BME280;44432;49.786;22.760;2023-05-03T09:31:04;100088.52;;;15.23;67.23
58662;BME280;44432;49.786;22.760;2023-05-03T09:33:34;100086.47;;;15.30;66.70
58662;BME280;44432;49.786;22.760;2023-05-03T09:36:03;100086.35;;;15.39;66.78
58662;BME280;44432;49.786;22.760;2023-05-03T09:38:34;100083.34;;;15.48;66.46
58662;BME280;44432;49.786;22.760;2023-05-03T09:41:04;100085.79;;;15.51;66.22
58662;BME280;44432;49.786;22.760;2023-05-03T09:43:34;100085.25;;;15.46;65.68
58662;BME280;44432;49.786;22.760;2023-05-03T09:46:07;100085.80;;;15.48;65.88
58662;BME280;44432;49.786;22.760;2023-05-03T09:48:37;100088.67;;;15.44;65.73
58662;BME280;44432;49.786;22.760;2023-05-03T09:51:07;100088.20;;;15.48;65.86
58662;BME280;44432;49.786;22.760;2023-05-03T09:53:36;100088.46;;;15.54;65.64
58662;BME280;44432;49.786;22.760;2023-05-03T09:56:06;100092.20;;;15.56;65.56
58662;BME280;44432;49.786;22.760;2023-05-03T09:58:37;100089.89;;;15.54;65.30
58662;BME280;44432;49.786;22.760;2023-05-03T10:01:06;100088.85;;;15.52;65.35
58662;BME280;44432;49.786;22.760;2023-05-03T10:03:38;100086.48;;;15.65;65.61
58662;BME280;44432;49.786;22.760;2023-05-03T10:06:10;100084.83;;;15.77;65.20
58662;BME280;44432;49.786;22.760;2023-05-03T10:08:45;100089.77;;;15.90;64.89
58662;BME280;44432;49.786;22.760;2023-05-03T10:11:16;100087.33;;;16.02;64.80
58662;BME280;44432;49.786;22.760;2023-05-03T10:13:46;100079.59;;;16.01;63.85
58662;BME280;44432;49.786;22.760;2023-05-03T10:16:16;100084.64;;;16.01;63.77
58662;BME280;44432;49.786;22.760;2023-05-03T10:18:49;100083.95;;;15.92;63.67
58662;BME280;44432;49.786;22.760;2023-05-03T10:21:19;100077.77;;;15.92;64.13
58662;BME280;44432;49.786;22.760;2023-05-03T10:24:11;100078.04;;;16.01;64.16
58662;BME280;44432;49.786;22.760;2023-05-03T10:26:41;100080.77;;;16.02;63.72
58662;BME280;44432;49.786;22.760;2023-05-03T10:35:11;100075.80;;;16.24;63.88
58662;BME280;44432;49.786;22.760;2023-05-03T10:37:42;100078.00;;;16.30;63.68
58662;BME280;44432;49.786;22.760;2023-05-03T10:40:13;100080.69;;;16.33;62.99
58662;BME280;44432;49.786;22.760;2023-05-03T10:42:46;100081.66;;;16.21;62.37
58662;BME280;44432;49.786;22.760;2023-05-03T10:45:21;100080.35;;;16.00;61.83
58662;BME280;44432;49.786;22.760;2023-05-03T10:50:37;100083.12;;;15.93;63.28
58662;BME280;44432;49.786;22.760;2023-05-03T10:53:06;100081.20;;;15.87;63.07
58662;BME280;44432;49.786;22.760;2023-05-03T10:55:36;100083.96;;;15.89;63.86
58662;BME280;44432;49.786;22.760;2023-05-03T10:58:05;100079.73;;;15.90;63.44
58662;BME280;44432;49.786;22.760;2023-05-03T11:00:40;100083.22;;;15.89;63.53
58662;BME280;44432;49.786;22.760;2023-05-03T11:03:18;100077.17;;;15.88;63.63
58662;BME280;44432;49.786;22.760;2023-05-03T11:05:52;100069.65;;;15.87;64.07
58662;BME280;44432;49.786;22.760;2023-05-03T11:08:21;100078.98;;;15.94;64.40
58662;BME280;44432;49.786;22.760;2023-05-03T11:10:56;100080.50;;;15.85;64.10
58662;BME280;44432;49.786;22.760;2023-05-03T11:13:26;100088.62;;;15.69;64.22
58662;BME280;44432;49.786;22.760;2023-05-03T11:15:55;100088.41;;;15.48;64.41
58662;BME280;44432;49.786;22.760;2023-05-03T11:18:25;100086.36;;;15.32;65.22
58662;BME280;44432;49.786;22.760;2023-05-03T11:20:54;100088.95;;;15.16;65.45
58662;BME280;44432;49.786;22.760;2023-05-03T11:23:24;100083.39;;;14.99;65.93
58662;BME280;44432;49.786;22.760;2023-05-03T11:25:54;100089.34;;;14.86;66.76
58662;BME280;44432;49.786;22.760;2023-05-03T11:28:24;100096.16;;;14.78;67.85
58662;BME280;44432;49.786;22.760;2023-05-03T11:30:54;100103.99;;;14.71;68.52
58662;BME280;44432;49.786;22.760;2023-05-03T11:33:23;100105.10;;;14.59;68.84
58662;BME280;44432;49.786;22.760;2023-05-03T11:35:55;100110.35;;;14.49;69.48
58662;BME280;44432;49.786;22.760;2023-05-03T11:38:24;100112.61;;;14.28;69.66
58662;BME280;44432;49.786;22.760;2023-05-03T11:40:53;100119.04;;;14.03;70.38
58662;BME280;44432;49.786;22.760;2023-05-03T11:43:22;100119.13;;;13.81;71.40
58662;BME280;44432;49.786;22.760;2023-05-03T11:45:53;100122.73;;;13.57;71.96
58662;BME280;44432;49.786;22.760;2023-05-03T11:48:23;100120.40;;;13.45;72.82
58662;BME280;44432;49.786;22.760;2023-05-03T11:50:54;100120.49;;;13.40;73.11
58662;BME280;44432;49.786;22.760;2023-05-03T11:53:24;100117.71;;;13.32;73.10
58662;BME280;44432;49.786;22.760;2023-05-03T11:55:54;100118.81;;;13.31;73.60
58662;BME280;44432;49.786;22.760;2023-05-03T11:58:23;100119.56;;;13.28;73.68
58662;BME280;44432;49.786;22.760;2023-05-03T12:00:53;100121.09;;;13.24;74.33
58662;BME280;44432;49.786;22.760;2023-05-03T12:03:23;100125.01;;;13.15;74.36
58662;BME280;44432;49.786;22.760;2023-05-03T12:05:52;100123.70;;;13.13;74.80
58662;BME280;44432;49.786;22.760;2023-05-03T12:08:21;100122.52;;;13.15;75.09
58662;BME280;44432;49.786;22.760;2023-05-03T12:10:50;100122.57;;;13.16;75.10
58662;BME280;44432;49.786;22.760;2023-05-03T12:13:26;100119.46;;;13.20;75.18
58662;BME280;44432;49.786;22.760;2023-05-03T12:15:56;100120.70;;;13.17;74.97
58662;BME280;44432;49.786;22.760;2023-05-03T12:18:36;100122.48;;;13.17;75.15
58662;BME280;44432;49.786;22.760;2023-05-03T12:21:12;100121.83;;;13.17;75.10
58662;BME280;44432;49.786;22.760;2023-05-03T12:23:42;100121.41;;;13.13;75.12
58662;BME280;44432;49.786;22.760;2023-05-03T12:26:11;100125.41;;;13.12;75.19
58662;BME280;44432;49.786;22.760;2023-05-03T12:28:41;100123.45;;;13.14;75.22
58662;BME280;44432;49.786;22.760;2023-05-03T12:31:10;100127.41;;;13.12;74.40
58662;BME280;44432;49.786;22.760;2023-05-03T12:33:39;100127.10;;;13.03;74.13
58662;BME280;44432;49.786;22.760;2023-05-03T12:36:08;100127.56;;;12.96;74.15
58662;BME280;44432;49.786;22.760;2023-05-03T12:38:40;100129.04;;;12.93;74.19
58662;BME280;44432;49.786;22.760;2023-05-03T12:41:09;100133.66;;;12.84;73.52
58662;BME280;44432;49.786;22.760;2023-05-03T12:43:39;100135.55;;;12.72;73.91
58662;BME280;44432;49.786;22.760;2023-05-03T12:46:08;100135.42;;;12.67;73.63
58662;BME280;44432;49.786;22.760;2023-05-03T12:48:38;100133.35;;;12.61;73.31
58662;BME280;44432;49.786;22.760;2023-05-03T12:51:07;100131.73;;;12.58;73.09
58662;BME280;44432;49.786;22.760;2023-05-03T12:53:36;100133.84;;;12.54;73.08
58662;BME280;44432;49.786;22.760;2023-05-03T12:56:05;100133.50;;;12.46;72.42
58662;BME280;44432;49.786;22.760;2023-05-03T12:58:34;100135.38;;;12.37;71.96
58662;BME280;44432;49.786;22.760;2023-05-03T13:01:03;100134.56;;;12.29;71.90
58662;BME280;44432;49.786;22.760;2023-05-03T13:03:33;100132.64;;;12.25;71.85
58662;BME280;44432;49.786;22.760;2023-05-03T13:06:02;100123.83;;;12.18;71.92
58662;BME280;44432;49.786;22.760;2023-05-03T13:08:31;100116.79;;;12.18;72.23
58662;BME280;44432;49.786;22.760;2023-05-03T13:11:02;100116.63;;;12.18;72.06